sensor_id;sensor_type;location;lat;lon;timestamp;pressure;altitude;pressure_sealevel;temperature;humidity
51259;BME280;37327;54.254;18.504;2023-02-24T00:00:10;99858.29;;;3.71;100.00
51259;BME280;37327;54.254;18.504;2023-02-24T00:03:42;99848.59;;;3.70;100.00
51259;BME280;37327;54.254;18.504;2023-02-24T00:07:00;99850.43;;;3.70;100.00
51259;BME280;37327;54.254;18.504;2023-02-24T00:10:19;99846.75;;;3.71;100.00
51259;BME280;37327;54.254;18.504;2023-02-24T00:13:37;99838.59;;;3.72;100.00
51259;BME280;37327;54.254;18.504;2023-02-24T00:16:55;99842.09;;;3.73;100.00
51259;BME280;37327;54.254;18.504;2023-02-24T00:20:14;99839.27;;;3.74;100.00
51259;BME280;37327;54.254;18.504;2023-02-24T00:23:38;99835.09;;;3.72;100.00
51259;BME280;37327;54.254;18.504;2023-02-24T00:26:58;99827.77;;;3.74;100.00
51259;BME280;37327;54.254;18.504;2023-02-24T00:30:17;99825.09;;;3.74;100.00
51259;BME280;37327;54.254;18.504;2023-02-24T00:33:40;99830.98;;;3.78;100.00
51259;BME280;37327;54.254;18.504;2023-02-24T00:36:57;99814.95;;;3.78;100.00
51259;BME280;37327;54.254;18.504;2023-02-24T00:40:15;99815.63;;;3.80;100.00
51259;BME280;37327;54.254;18.504;2023-02-24T00:43:38;99809.28;;;3.81;100.00
51259;BME280;37327;54.254;18.504;2023-02-24T00:46:56;99809.14;;;3.82;100.00
51259;BME280;37327;54.254;18.504;2023-02-24T00:50:13;99801.95;;;3.83;100.00
51259;BME280;37327;54.254;18.504;2023-02-24T00:53:30;99792.13;;;3.83;100.00
51259;BME280;37327;54.254;18.504;2023-02-24T00:56:47;99793.12;;;3.82;100.00
51259;BME280;37327;54.254;18.504;2023-02-24T01:00:07;99786.80;;;3.83;100.00
51259;BME280;37327;54.254;18.504;2023-02-24T01:03:32;99777.77;;;3.84;100.00
51259;BME280;37327;54.254;18.504;2023-02-24T01:06:52;99778.64;;;3.85;100.00
51259;BME280;37327;54.254;18.504;2023-02-24T01:10:16;99772.28;;;3.86;100.00
51259;BME280;37327;54.254;18.504;2023-02-24T01:13:36;99765.97;;;3.87;100.00
51259;BME280;37327;54.254;18.504;2023-02-24T01:16:55;99750.77;;;3.87;100.00
51259;BME280;37327;54.254;18.504;2023-02-24T01:20:13;99751.45;;;3.89;100.00
51259;BME280;37327;54.254;18.504;2023-02-24T01:23:33;99740.61;;;3.91;100.00
51259;BME280;37327;54.254;18.504;2023-02-24T01:26:52;99739.76;;;3.90;100.00
51259;BME280;37327;54.254;18.504;2023-02-24T01:30:11;99740.61;;;3.91;100.00
51259;BME280;37327;54.254;18.504;2023-02-24T01:33:32;99743.10;;;3.92;100.00
51259;BME280;37327;54.254;18.504;2023-02-24T01:36:53;99737.77;;;3.92;100.00
51259;BME280;37327;54.254;18.504;2023-02-24T01:40:12;99730.77;;;3.91;100.00
51259;BME280;37327;54.254;18.504;2023-02-24T01:47:07;99730.46;;;3.94;100.00
51259;BME280;37327;54.254;18.504;2023-02-24T01:50:25;99724.12;;;3.95;100.00
51259;BME280;37327;54.254;18.504;2023-02-24T01:53:42;99725.80;;;3.97;100.00
51259;BME280;37327;54.254;18.504;2023-02-24T01:57:00;99720.27;;;3.98;100.00
51259;BME280;37327;54.254;18.504;2023-02-24T02:00:22;99721.13;;;3.99;100.00
51259;BME280;37327;54.254;18.504;2023-02-24T02:03:58;99710.45;;;3.99;100.00
51259;BME280;37327;54.254;18.504;2023-02-24T02:07:19;99703.11;;;4.01;100.00
51259;BME280;37327;54.254;18.504;2023-02-24T02:10:40;99702.25;;;4.00;100.00
51259;BME280;37327;54.254;18.504;2023-02-24T02:14:00;99698.59;;;4.01;100.00
51259;BME280;37327;54.254;18.504;2023-02-24T02:21:02;99688.74;;;4.02;100.00
51259;BME280;37327;54.254;18.504;2023-02-24T02:24:26;99684.94;;;4.04;100.00
51259;BME280;37327;54.254;18.504;2023-02-24T02:31:21;99688.96;;;4.08;100.00
51259;BME280;37327;54.254;18.504;2023-02-24T02:38:23;99682.61;;;4.09;100.00
51259;BME280;37327;54.254;18.504;2023-02-24T02:45:18;99679.10;;;4.09;100.00
51259;BME280;37327;54.254;18.504;2023-02-24T02:48:42;99674.59;;;4.09;100.00
51259;BME280;37327;54.254;18.504;2023-02-24T02:55:41;99670.08;;;4.10;100.00
51259;BME280;37327;54.254;18.504;2023-02-24T02:59:04;99672.45;;;4.13;100.00
51259;BME280;37327;54.254;18.504;2023-02-24T03:02:26;99665.25;;;4.13;100.00
51259;BME280;37327;54.254;18.504;2023-02-24T03:05:51;99659.77;;;4.15;100.00
51259;BME280;37327;54.254;18.504;2023-02-24T03:12:42;99648.77;;;4.18;100.00
51259;BME280;37327;54.254;18.504;2023-02-24T03:16:03;99652.11;;;4.20;100.00
51259;BME280;37327;54.254;18.504;2023-02-24T03:19:33;99651.09;;;4.21;100.00
51259;BME280;37327;54.254;18.504;2023-02-24T03:23:00;99648.27;;;4.23;100.00
51259;BME280;37327;54.254;18.504;2023-02-24T03:29:54;99640.10;;;4.24;100.00
51259;BME280;37327;54.254;18.504;2023-02-24T03:33:21;99638.10;;;4.26;100.00
51259;BME280;37327;54.254;18.504;2023-02-24T03:36:41;99638.10;;;4.26;100.00
51259;BME280;37327;54.254;18.504;2023-02-24T03:40:02;99631.74;;;4.27;100.00
51259;BME280;37327;54.254;18.504;2023-02-24T03:43:37;99637.76;;;4.29;100.00
51259;BME280;37327;54.254;18.504;2023-02-24T03:46:56;99634.26;;;4.29;100.00
51259;BME280;37327;54.254;18.504;2023-02-24T03:50:18;99631.43;;;4.30;100.00
51259;BME280;37327;54.254;18.504;2023-02-24T04:00:51;99626.91;;;4.31;100.00
51259;BME280;37327;54.254;18.504;2023-02-24T04:11:18;99623.42;;;4.30;100.00
51259;BME280;37327;54.254;18.504;2023-02-24T04:14:49;99611.70;;;4.31;100.00
51259;BME280;37327;54.254;18.504;2023-02-24T04:18:17;99607.38;;;4.30;100.00
51259;BME280;37327;54.254;18.504;2023-02-24T04:21:38;99607.89;;;4.34;100.00
51259;BME280;37327;54.254;18.504;2023-02-24T04:24:58;99600.04;;;4.32;100.00
51259;BME280;37327;54.254;18.504;2023-02-24T04:28:18;99599.88;;;4.34;100.00
51259;BME280;37327;54.254;18.504;2023-02-24T04:31:40;99594.70;;;4.32;100.00
51259;BME280;37327;54.254;18.504;2023-02-24T04:35:03;99596.53;;;4.32;100.00
51259;BME280;37327;54.254;18.504;2023-02-24T04:38:22;99592.17;;;4.31;100.00
51259;BME280;37327;54.254;18.504;2023-02-24T04:41:40;99600.35;;;4.29;100.00
51259;BME280;37327;54.254;18.504;2023-02-24T04:44:58;99596.70;;;4.30;100.00
51259;BME280;37327;54.254;18.504;2023-02-24T04:48:16;99598.34;;;4.31;100.00
51259;BME280;37327;54.254;18.504;2023-02-24T04:51:36;99596.53;;;4.32;100.00
51259;BME280;37327;54.254;18.504;2023-02-24T04:54:58;99593.86;;;4.32;100.00
51259;BME280;37327;54.254;18.504;2023-02-24T04:58:20;99597.52;;;4.31;100.00
51259;BME280;37327;54.254;18.504;2023-02-24T05:01:40;99591.66;;;4.27;100.00
51259;BME280;37327;54.254;18.504;2023-02-24T05:05:00;99591.50;;;4.29;100.00
51259;BME280;37327;54.254;18.504;2023-02-24T05:08:20;99585.48;;;4.27;100.00
51259;BME280;37327;54.254;18.504;2023-02-24T05:11:37;99591.84;;;4.26;100.00
51259;BME280;37327;54.254;18.504;2023-02-24T05:14:57;99582.15;;;4.25;100.00
51259;BME280;37327;54.254;18.504;2023-02-24T05:18:18;99578.48;;;4.26;100.00
51259;BME280;37327;54.254;18.504;2023-02-24T05:21:40;99573.45;;;4.23;100.00
51259;BME280;37327;54.254;18.504;2023-02-24T05:24:58;99577.98;;;4.22;100.00
51259;BME280;37327;54.254;18.504;2023-02-24T05:28:15;99576.28;;;4.21;100.00
51259;BME280;37327;54.254;18.504;2023-02-24T05:31:32;99566.93;;;4.17;100.00
51259;BME280;37327;54.254;18.504;2023-02-24T05:34:50;99563.59;;;4.15;100.00
51259;BME280;37327;54.254;18.504;2023-02-24T05:38:07;99559.41;;;4.12;100.00
51259;BME280;37327;54.254;18.504;2023-02-24T05:41:26;99559.57;;;4.11;100.00
51259;BME280;37327;54.254;18.504;2023-02-24T05:44:51;99558.23;;;4.07;100.00
51259;BME280;37327;54.254;18.504;2023-02-24T05:48:09;99560.55;;;4.02;100.00
51259;BME280;37327;54.254;18.504;2023-02-24T05:51:31;99558.52;;;3.95;100.00
51259;BME280;37327;54.254;18.504;2023-02-24T05:54:51;99551.16;;;3.89;100.00
51259;BME280;37327;54.254;18.504;2023-02-24T05:58:09;99553.48;;;3.84;100.00
51259;BME280;37327;54.254;18.504;2023-02-24T06:01:31;99547.80;;;3.79;100.00
51259;BME280;37327;54.254;18.504;2023-02-24T06:04:48;99545.14;;;3.79;100.00
51259;BME280;37327;54.254;18.504;2023-02-24T06:08:09;99547.63;;;3.81;100.00
51259;BME280;37327;54.254;18.504;2023-02-24T06:11:29;99553.81;;;3.81;100.00
51259;BME280;37327;54.254;18.504;2023-02-24T06:14:47;99544.80;;;3.82;100.00
51259;BME280;37327;54.254;18.504;2023-02-24T06:18:04;99540.28;;;3.83;100.00
51259;BME280;37327;54.254;18.504;2023-02-24T06:21:27;99547.47;;;3.82;100.00
51259;BME280;37327;54.254;18.504;2023-02-24T06:24:46;99538.93;;;3.79;100.00
51259;BME280;37327;54.254;18.504;2023-02-24T06:28:05;99543.59;;;3.76;100.00
51259;BME280;37327;54.254;18.504;2023-02-24T06:31:22;99545.27;;;3.69;100.00
51259;BME280;37327;54.254;18.504;2023-02-24T06:34:40;99538.59;;;3.65;100.00
51259;BME280;37327;54.254;18.504;2023-02-24T06:37:57;99539.72;;;3.63;100.00
51259;BME280;37327;54.254;18.504;2023-02-24T06:41:15;99537.54;;;3.58;100.00
51259;BME280;37327;54.254;18.504;2023-02-24T06:44:34;99537.32;;;3.51;100.00
51259;BME280;37327;54.254;18.504;2023-02-24T06:47:52;99535.67;;;3.50;100.00
51259;BME280;37327;54.254;18.504;2023-02-24T06:51:16;99534.50;;;3.53;100.00
51259;BME280;37327;54.254;18.504;2023-02-24T06:54:36;99531.01;;;3.52;100.00
51259;BME280;37327;54.254;18.504;2023-02-24T06:57:56;99527.30;;;3.45;100.00
51259;BME280;37327;54.254;18.504;2023-02-24T07:01:15;99519.94;;;3.39;100.00
51259;BME280;37327;54.254;18.504;2023-02-24T07:04:33;99527.59;;;3.34;100.00
51259;BME280;37327;54.254;18.504;2023-02-24T07:08:01;99534.55;;;3.27;100.00
51259;BME280;37327;54.254;18.504;2023-02-24T07:11:19;99533.20;;;3.23;100.00
51259;BME280;37327;54.254;18.504;2023-02-24T07:14:38;99535.49;;;3.18;100.00
51259;BME280;37327;54.254;18.504;2023-02-24T07:17:56;99523.77;;;3.10;100.00
51259;BME280;37327;54.254;18.504;2023-02-24T07:21:15;99521.74;;;3.04;100.00
51259;BME280;37327;54.254;18.504;2023-02-24T07:24:36;99519.41;;;3.01;100.00
51259;BME280;37327;54.254;18.504;2023-02-24T07:28:01;99520.53;;;2.99;100.00
51259;BME280;37327;54.254;18.504;2023-02-24T07:31:20;99513.54;;;2.98;100.00
51259;BME280;37327;54.254;18.504;2023-02-24T07:34:39;99519.70;;;2.98;100.00
51259;BME280;37327;54.254;18.504;2023-02-24T07:37:56;99509.72;;;3.00;100.00
51259;BME280;37327;54.254;18.504;2023-02-24T07:41:21;99503.41;;;3.01;100.00
51259;BME280;37327;54.254;18.504;2023-02-24T07:44:38;99495.03;;;2.96;100.00
51259;BME280;37327;54.254;18.504;2023-02-24T07:47:56;99486.73;;;2.99;100.00
51259;BME280;37327;54.254;18.504;2023-02-24T07:51:15;99488.64;;;3.15;100.00
51259;BME280;37327;54.254;18.504;2023-02-24T07:54:33;99484.55;;;3.29;99.99
51259;BME280;37327;54.254;18.504;2023-02-24T07:57:50;99480.55;;;3.33;99.11
51259;BME280;37327;54.254;18.504;2023-02-24T08:01:12;99467.71;;;3.28;98.38
51259;BME280;37327;54.254;18.504;2023-02-24T08:04:38;99479.84;;;3.23;98.78
51259;BME280;37327;54.254;18.504;2023-02-24T08:08:00;99473.65;;;3.22;99.06
51259;BME280;37327;54.254;18.504;2023-02-24T08:11:18;99477.61;;;3.10;97.75
51259;BME280;37327;54.254;18.504;2023-02-24T08:14:40;99473.70;;;2.96;97.53
51259;BME280;37327;54.254;18.504;2023-02-24T08:18:05;99471.15;;;2.86;97.51
51259;BME280;37327;54.254;18.504;2023-02-24T08:21:23;99468.29;;;2.80;97.97
51259;BME280;37327;54.254;18.504;2023-02-24T08:24:42;99464.27;;;2.75;98.21
51259;BME280;37327;54.254;18.504;2023-02-24T08:28:04;99468.21;;;2.71;98.37
51259;BME280;37327;54.254;18.504;2023-02-24T08:31:21;99466.84;;;2.67;98.18
51259;BME280;37327;54.254;18.504;2023-02-24T08:34:40;99457.83;;;2.60;97.63
51259;BME280;37327;54.254;18.504;2023-02-24T08:38:07;99458.80;;;2.59;97.94
51259;BME280;37327;54.254;18.504;2023-02-24T08:41:25;99461.80;;;2.56;97.70
51259;BME280;37327;54.254;18.504;2023-02-24T08:44:53;99462.09;;;2.53;97.39
51259;BME280;37327;54.254;18.504;2023-02-24T08:48:14;99456.23;;;2.49;96.99
51259;BME280;37327;54.254;18.504;2023-02-24T08:51:48;99457.25;;;2.48;97.01
51259;BME280;37327;54.254;18.504;2023-02-24T08:55:09;99462.49;;;2.40;96.54
51259;BME280;37327;54.254;18.504;2023-02-24T08:58:27;99460.63;;;2.32;96.40
51259;BME280;37327;54.254;18.504;2023-02-24T09:01:46;99475.21;;;2.28;96.12
51259;BME280;37327;54.254;18.504;2023-02-24T09:05:13;99460.71;;;2.23;95.69
51259;BME280;37327;54.254;18.504;2023-02-24T09:08:33;99455.98;;;2.16;94.96
51259;BME280;37327;54.254;18.504;2023-02-24T09:11:58;99456.05;;;2.07;94.47
51259;BME280;37327;54.254;18.504;2023-02-24T09:15:17;99446.09;;;2.09;93.74
51259;BME280;37327;54.254;18.504;2023-02-24T09:18:38;99448.67;;;2.18;93.79
51259;BME280;37327;54.254;18.504;2023-02-24T09:21:55;99445.92;;;2.28;92.58
51259;BME280;37327;54.254;18.504;2023-02-24T09:25:27;99443.39;;;2.45;91.91
51259;BME280;37327;54.254;18.504;2023-02-24T09:28:58;99427.16;;;2.56;91.50
51259;BME280;37327;54.254;18.504;2023-02-24T09:32:15;99432.01;;;2.61;90.80
51259;BME280;37327;54.254;18.504;2023-02-24T09:35:35;99426.52;;;2.62;89.14
51259;BME280;37327;54.254;18.504;2023-02-24T09:38:59;99425.89;;;2.68;89.68
51259;BME280;37327;54.254;18.504;2023-02-24T09:42:30;99418.28;;;2.73;89.44
51259;BME280;37327;54.254;18.504;2023-02-24T09:46:05;99407.66;;;2.82;89.28
51259;BME280;37327;54.254;18.504;2023-02-24T09:53:02;99402.23;;;3.00;89.31
51259;BME280;37327;54.254;18.504;2023-02-24T10:00:09;99387.81;;;3.19;88.23
51259;BME280;37327;54.254;18.504;2023-02-24T10:03:43;99382.81;;;3.24;86.74
51259;BME280;37327;54.254;18.504;2023-02-24T10:07:11;99384.66;;;3.23;85.71
51259;BME280;37327;54.254;18.504;2023-02-24T10:10:35;99373.82;;;3.25;85.13
51259;BME280;37327;54.254;18.504;2023-02-24T10:13:54;99372.50;;;3.29;84.98
51259;BME280;37327;54.254;18.504;2023-02-24T10:17:19;99361.17;;;3.35;84.80
51259;BME280;37327;54.254;18.504;2023-02-24T10:20:42;99354.51;;;3.39;83.89
51259;BME280;37327;54.254;18.504;2023-02-24T10:28:05;99348.51;;;3.45;83.58
51259;BME280;37327;54.254;18.504;2023-02-24T10:34:41;99331.67;;;3.45;81.87
51259;BME280;37327;54.254;18.504;2023-02-24T10:38:03;99331.17;;;3.49;82.55
51259;BME280;37327;54.254;18.504;2023-02-24T10:41:24;99324.84;;;3.59;82.85
51259;BME280;37327;54.254;18.504;2023-02-24T10:44:50;99315.70;;;3.69;82.80
51259;BME280;37327;54.254;18.504;2023-02-24T10:48:16;99314.68;;;3.70;82.45
51259;BME280;37327;54.254;18.504;2023-02-24T10:51:47;99310.51;;;3.76;82.14
51259;BME280;37327;54.254;18.504;2023-02-24T10:55:18;99304.66;;;3.81;81.83
51259;BME280;37327;54.254;18.504;2023-02-24T10:59:00;99307.67;;;3.86;81.85
51259;BME280;37327;54.254;18.504;2023-02-24T11:02:37;99296.17;;;3.85;80.83
51259;BME280;37327;54.254;18.504;2023-02-24T11:09:46;99283.98;;;3.91;81.50
51259;BME280;37327;54.254;18.504;2023-02-24T11:13:15;99263.44;;;3.91;81.19
51259;BME280;37327;54.254;18.504;2023-02-24T11:16:50;99261.45;;;3.93;80.98
51259;BME280;37327;54.254;18.504;2023-02-24T11:20:27;99253.42;;;3.93;80.50
51259;BME280;37327;54.254;18.504;2023-02-24T11:23:50;99251.08;;;3.90;79.96
51259;BME280;37327;54.254;18.504;2023-02-24T11:27:10;99239.41;;;3.91;80.07
51259;BME280;37327;54.254;18.504;2023-02-24T11:30:39;99241.92;;;3.93;79.97
51259;BME280;37327;54.254;18.504;2023-02-24T11:37:38;99232.39;;;3.90;80.49
51259;BME280;37327;54.254;18.504;2023-02-24T11:41:04;99229.72;;;3.90;80.65
51259;BME280;37327;54.254;18.504;2023-02-24T11:44:33;99220.08;;;3.81;79.70
51259;BME280;37327;54.254;18.504;2023-02-24T11:51:21;99211.72;;;3.84;80.17
51259;BME280;37327;54.254;18.504;2023-02-24T11:54:52;99207.24;;;3.85;80.31
51259;BME280;37327;54.254;18.504;2023-02-24T12:01:47;99200.35;;;3.90;80.51
51259;BME280;37327;54.254;18.504;2023-02-24T12:05:14;99193.35;;;3.89;79.80
51259;BME280;37327;54.254;18.504;2023-02-24T12:08:38;99186.01;;;3.91;80.61
51259;BME280;37327;54.254;18.504;2023-02-24T12:12:11;99176.98;;;4.01;80.53
51259;BME280;37327;54.254;18.504;2023-02-24T12:15:34;99173.62;;;4.07;80.25
51259;BME280;37327;54.254;18.504;2023-02-24T12:22:39;99168.89;;;4.17;80.25
51259;BME280;37327;54.254;18.504;2023-02-24T12:33:14;99159.24;;;4.08;77.89
51259;BME280;37327;54.254;18.504;2023-02-24T12:40:19;99147.60;;;4.01;77.58
51259;BME280;37327;54.254;18.504;2023-02-24T12:43:41;99142.59;;;3.98;77.50
51259;BME280;37327;54.254;18.504;2023-02-24T12:47:11;99136.59;;;3.95;77.01
51259;BME280;37327;54.254;18.504;2023-02-24T13:04:39;99111.80;;;4.18;74.88
51259;BME280;37327;54.254;18.504;2023-02-24T13:14:57;99095.08;;;4.24;73.53
51259;BME280;37327;54.254;18.504;2023-02-24T13:21:43;99096.55;;;4.27;72.98
51259;BME280;37327;54.254;18.504;2023-02-24T13:28:37;99089.58;;;4.18;72.59
51259;BME280;37327;54.254;18.504;2023-02-24T13:31:54;99083.10;;;4.12;72.79
51259;BME280;37327;54.254;18.504;2023-02-24T13:45:39;99061.56;;;4.13;72.55
51259;BME280;37327;54.254;18.504;2023-02-24T13:49:15;99060.62;;;4.06;71.41
51259;BME280;37327;54.254;18.504;2023-02-24T13:52:42;99058.94;;;4.05;71.89
51259;BME280;37327;54.254;18.504;2023-02-24T13:59:39;99051.09;;;4.04;72.61
51259;BME280;37327;54.254;18.504;2023-02-24T14:02:59;99059.28;;;4.02;72.83
51259;BME280;37327;54.254;18.504;2023-02-24T14:06:22;99057.14;;;3.98;73.28
51259;BME280;37327;54.254;18.504;2023-02-24T14:09:46;99047.98;;;3.92;73.49
51259;BME280;37327;54.254;18.504;2023-02-24T14:13:12;99043.84;;;3.89;74.20
51259;BME280;37327;54.254;18.504;2023-02-24T14:16:34;99037.52;;;3.82;74.29
51259;BME280;37327;54.254;18.504;2023-02-24T14:23:28;99031.57;;;3.72;74.94
51259;BME280;37327;54.254;18.504;2023-02-24T14:26:52;99038.27;;;3.68;75.06
51259;BME280;37327;54.254;18.504;2023-02-24T14:33:41;99027.96;;;3.56;75.61
51259;BME280;37327;54.254;18.504;2023-02-24T14:37:01;99025.46;;;3.55;76.07
51259;BME280;37327;54.254;18.504;2023-02-24T14:40:20;99014.45;;;3.58;76.75
51259;BME280;37327;54.254;18.504;2023-02-24T14:43:41;99006.44;;;3.58;76.95
51259;BME280;37327;54.254;18.504;2023-02-24T14:47:03;99012.28;;;3.53;76.65
51259;BME280;37327;54.254;18.504;2023-02-24T14:50:27;99001.98;;;3.50;76.79
51259;BME280;37327;54.254;18.504;2023-02-24T14:53:51;98998.98;;;3.45;76.86
51259;BME280;37327;54.254;18.504;2023-02-24T14:57:18;98997.01;;;3.39;77.18
51259;BME280;37327;54.254;18.504;2023-02-24T15:00:52;98990.68;;;3.40;77.71
51259;BME280;37327;54.254;18.504;2023-02-24T15:04:12;98989.01;;;3.39;78.04
51259;BME280;37327;54.254;18.504;2023-02-24T15:07:32;98980.34;;;3.37;78.77
51259;BME280;37327;54.254;18.504;2023-02-24T15:10:50;98970.03;;;3.34;79.19
51259;BME280;37327;54.254;18.504;2023-02-24T15:14:18;98977.35;;;3.32;79.70
51259;BME280;37327;54.254;18.504;2023-02-24T15:17:42;98963.71;;;3.27;79.98
51259;BME280;37327;54.254;18.504;2023-02-24T15:21:06;98966.71;;;3.24;80.31
51259;BME280;37327;54.254;18.504;2023-02-24T15:24:32;98966.23;;;3.20;80.80
51259;BME280;37327;54.254;18.504;2023-02-24T15:27:52;98960.09;;;3.11;81.33
51259;BME280;37327;54.254;18.504;2023-02-24T15:31:16;98952.78;;;3.05;81.45
51259;BME280;37327;54.254;18.504;2023-02-24T15:34:35;98943.48;;;3.01;82.29
51259;BME280;37327;54.254;18.504;2023-02-24T15:37:53;98933.50;;;2.95;83.12
51259;BME280;37327;54.254;18.504;2023-02-24T15:41:12;98930.51;;;2.90;83.57
51259;BME280;37327;54.254;18.504;2023-02-24T15:44:33;98927.50;;;2.85;84.13
51259;BME280;37327;54.254;18.504;2023-02-24T15:47:54;98924.54;;;2.80;84.48
51259;BME280;37327;54.254;18.504;2023-02-24T15:54:42;98916.07;;;2.68;85.68
51259;BME280;37327;54.254;18.504;2023-02-24T15:58:01;98903.59;;;2.60;86.09
51259;BME280;37327;54.254;18.504;2023-02-24T16:01:19;98900.60;;;2.55;86.44
51259;BME280;37327;54.254;18.504;2023-02-24T16:04:36;98899.60;;;2.48;86.86
51259;BME280;37327;54.254;18.504;2023-02-24T16:07:54;98894.63;;;2.45;87.17
51259;BME280;37327;54.254;18.504;2023-02-24T16:11:16;98889.63;;;2.42;87.33
51259;BME280;37327;54.254;18.504;2023-02-24T16:14:37;98889.13;;;2.38;87.71
51259;BME280;37327;54.254;18.504;2023-02-24T16:17:55;98886.00;;;2.34;88.11
51259;BME280;37327;54.254;18.504;2023-02-24T16:21:13;98885.14;;;2.34;88.30
51259;BME280;37327;54.254;18.504;2023-02-24T16:24:31;98880.17;;;2.31;88.71
51259;BME280;37327;54.254;18.504;2023-02-24T16:27:48;98876.66;;;2.30;88.98
51259;BME280;37327;54.254;18.504;2023-02-24T16:31:11;98873.33;;;2.28;89.24
51259;BME280;37327;54.254;18.504;2023-02-24T16:34:28;98876.19;;;2.27;89.53
51259;BME280;37327;54.254;18.504;2023-02-24T16:37:46;98872.67;;;2.26;89.74
51259;BME280;37327;54.254;18.504;2023-02-24T16:41:05;98873.69;;;2.25;90.01
51259;BME280;37327;54.254;18.504;2023-02-24T16:44:22;98865.03;;;2.23;90.45
51259;BME280;37327;54.254;18.504;2023-02-24T16:47:41;98865.03;;;2.23;90.67
51259;BME280;37327;54.254;18.504;2023-02-24T16:50:58;98860.86;;;2.21;90.88
51259;BME280;37327;54.254;18.504;2023-02-24T16:54:16;98853.05;;;2.19;91.19
51259;BME280;37327;54.254;18.504;2023-02-24T16:57:37;98852.40;;;2.17;91.21
51259;BME280;37327;54.254;18.504;2023-02-24T17:00:56;98839.91;;;2.17;91.46
51259;BME280;37327;54.254;18.504;2023-02-24T17:04:18;98837.41;;;2.16;91.57
51259;BME280;37327;54.254;18.504;2023-02-24T17:07:36;98833.93;;;2.15;91.77
51259;BME280;37327;54.254;18.504;2023-02-24T17:10:55;98827.11;;;2.13;91.87
51259;BME280;37327;54.254;18.504;2023-02-24T17:14:17;98833.75;;;2.09;92.15
51259;BME280;37327;54.254;18.504;2023-02-24T17:17:35;98824.43;;;2.05;92.47
51259;BME280;37327;54.254;18.504;2023-02-24T17:20:53;98826.44;;;2.03;92.87
51259;BME280;37327;54.254;18.504;2023-02-24T17:24:15;98824.79;;;2.02;93.07
51259;BME280;37327;54.254;18.504;2023-02-24T17:27:33;98824.29;;;1.98;93.51
51259;BME280;37327;54.254;18.504;2023-02-24T17:30:50;98813.80;;;1.96;93.85
51259;BME280;37327;54.254;18.504;2023-02-24T17:34:07;98810.31;;;1.96;94.11
51259;BME280;37327;54.254;18.504;2023-02-24T17:37:25;98800.85;;;1.93;94.42
51259;BME280;37327;54.254;18.504;2023-02-24T17:40:43;98801.99;;;1.91;94.63
51259;BME280;37327;54.254;18.504;2023-02-24T17:44:01;98804.66;;;1.91;94.93
51259;BME280;37327;54.254;18.504;2023-02-24T17:47:18;98799.50;;;1.89;95.13
51259;BME280;37327;54.254;18.504;2023-02-24T17:50:36;98793.20;;;1.90;95.32
51259;BME280;37327;54.254;18.504;2023-02-24T17:53:53;98796.66;;;1.91;95.45
51259;BME280;37327;54.254;18.504;2023-02-24T17:57:10;98789.52;;;1.91;95.66
51259;BME280;37327;54.254;18.504;2023-02-24T18:00:28;98786.02;;;1.91;95.64
51259;BME280;37327;54.254;18.504;2023-02-24T18:03:46;98778.70;;;1.93;95.65
51259;BME280;37327;54.254;18.504;2023-02-24T18:07:03;98773.38;;;1.93;96.00
51259;BME280;37327;54.254;18.504;2023-02-24T18:10:20;98778.70;;;1.93;96.18
51259;BME280;37327;54.254;18.504;2023-02-24T18:13:37;98771.73;;;1.92;96.51
51259;BME280;37327;54.254;18.504;2023-02-24T18:16:54;98769.23;;;1.90;96.81
51259;BME280;37327;54.254;18.504;2023-02-24T18:20:12;98765.09;;;1.88;97.25
51259;BME280;37327;54.254;18.504;2023-02-24T18:23:31;98757.27;;;1.86;97.52
51259;BME280;37327;54.254;18.504;2023-02-24T18:26:49;98749.45;;;1.85;97.76
51259;BME280;37327;54.254;18.504;2023-02-24T18:30:07;98751.61;;;1.81;98.22
51259;BME280;37327;54.254;18.504;2023-02-24T18:33:26;98743.13;;;1.77;98.50
51259;BME280;37327;54.254;18.504;2023-02-24T18:36:44;98746.97;;;1.75;98.87
51259;BME280;37327;54.254;18.504;2023-02-24T18:40:02;98751.79;;;1.71;99.22
51259;BME280;37327;54.254;18.504;2023-02-24T18:43:20;98741.31;;;1.70;99.53
51259;BME280;37327;54.254;18.504;2023-02-24T18:46:37;98740.65;;;1.68;99.90
51259;BME280;37327;54.254;18.504;2023-02-24T18:49:55;98739.16;;;1.65;100.00
51259;BME280;37327;54.254;18.504;2023-02-24T18:53:12;98729.70;;;1.63;100.00
51259;BME280;37327;54.254;18.504;2023-02-24T18:56:32;98728.03;;;1.62;100.00
51259;BME280;37327;54.254;18.504;2023-02-24T18:59:50;98719.05;;;1.63;100.00
51259;BME280;37327;54.254;18.504;2023-02-24T19:03:07;98709.56;;;1.60;100.00
51259;BME280;37327;54.254;18.504;2023-02-24T19:06:27;98713.40;;;1.57;100.00
51259;BME280;37327;54.254;18.504;2023-02-24T19:09:48;98707.41;;;1.55;100.00
51259;BME280;37327;54.254;18.504;2023-02-24T19:13:06;98701.27;;;1.55;100.00
51259;BME280;37327;54.254;18.504;2023-02-24T19:16:24;98702.61;;;1.51;100.00
51259;BME280;37327;54.254;18.504;2023-02-24T19:19:41;98703.95;;;1.47;100.00
51259;BME280;37327;54.254;18.504;2023-02-24T19:22:59;98702.62;;;1.43;100.00
51259;BME280;37327;54.254;18.504;2023-02-24T19:26:20;98688.47;;;1.42;100.00
51259;BME280;37327;54.254;18.504;2023-02-24T19:29:37;98688.99;;;1.37;100.00
51259;BME280;37327;54.254;18.504;2023-02-24T19:32:54;98678.52;;;1.36;100.00
51259;BME280;37327;54.254;18.504;2023-02-24T19:36:11;98676.37;;;1.31;100.00
51259;BME280;37327;54.254;18.504;2023-02-24T19:39:29;98679.19;;;1.30;100.00
51259;BME280;37327;54.254;18.504;2023-02-24T19:42:46;98671.21;;;1.30;100.00
51259;BME280;37327;54.254;18.504;2023-02-24T19:46:08;98664.05;;;1.30;100.00
51259;BME280;37327;54.254;18.504;2023-02-24T19:49:26;98669.21;;;1.32;100.00
51259;BME280;37327;54.254;18.504;2023-02-24T19:52:43;98670.04;;;1.32;100.00
51259;BME280;37327;54.254;18.504;2023-02-24T19:56:01;98666.40;;;1.33;100.00